sensor_id;sensor_type;location;lat;lon;timestamp;pressure;altitude;pressure_sealevel;temperature;humidity
47082;BME280;33066;49.296;14.470;2023-05-24T00:00:34;97034.11;;;20.12;36.39
47082;BME280;33066;49.296;14.470;2023-05-24T00:02:58;97036.22;;;20.00;36.46
47082;BME280;33066;49.296;14.470;2023-05-24T00:05:23;97033.81;;;20.17;36.73
47082;BME280;33066;49.296;14.470;2023-05-24T00:07:48;97030.81;;;19.98;36.54
47082;BME280;33066;49.296;14.470;2023-05-24T00:10:13;97029.77;;;19.94;36.58
47082;BME280;33066;49.296;14.470;2023-05-24T00:12:38;97026.19;;;19.76;36.64
47082;BME280;33066;49.296;14.470;2023-05-24T00:15:04;97023.79;;;19.73;36.75
47082;BME280;33066;49.296;14.470;2023-05-24T00:17:29;97026.29;;;19.55;36.63
47082;BME280;33066;49.296;14.470;2023-05-24T00:19:54;97023.26;;;19.79;36.71
47082;BME280;33066;49.296;14.470;2023-05-24T00:22:19;97025.68;;;19.69;36.95
47082;BME280;33066;49.296;14.470;2023-05-24T00:24:44;97024.41;;;19.53;36.99
47082;BME280;33066;49.296;14.470;2023-05-24T00:27:09;97025.12;;;19.21;37.38
47082;BME280;33066;49.296;14.470;2023-05-24T00:29:36;97025.25;;;18.96;37.16
47082;BME280;33066;49.296;14.470;2023-05-24T00:31:59;97024.14;;;19.41;37.18
47082;BME280;33066;49.296;14.470;2023-05-24T00:34:25;97027.59;;;19.13;37.39
47082;BME280;33066;49.296;14.470;2023-05-24T00:36:50;97030.11;;;19.06;37.56
47082;BME280;33066;49.296;14.470;2023-05-24T00:39:15;97030.49;;;19.04;37.86
47082;BME280;33066;49.296;14.470;2023-05-24T00:41:40;97031.60;;;19.22;37.64
47082;BME280;33066;49.296;14.470;2023-05-24T00:44:07;97030.06;;;19.32;37.69
47082;BME280;33066;49.296;14.470;2023-05-24T00:46:33;97027.40;;;19.21;37.61
47082;BME280;33066;49.296;14.470;2023-05-24T00:48:56;97028.78;;;19.21;37.45
47082;BME280;33066;49.296;14.470;2023-05-24T00:51:21;97027.94;;;19.28;37.27
47082;BME280;33066;49.296;14.470;2023-05-24T00:53:47;97025.23;;;19.31;37.16
47082;BME280;33066;49.296;14.470;2023-05-24T00:56:12;97023.56;;;19.27;37.17
47082;BME280;33066;49.296;14.470;2023-05-24T00:58:36;97028.26;;;19.51;37.25
47082;BME280;33066;49.296;14.470;2023-05-24T01:01:02;97027.74;;;19.09;37.27
47082;BME280;33066;49.296;14.470;2023-05-24T01:03:27;97024.72;;;19.31;37.68
47082;BME280;33066;49.296;14.470;2023-05-24T01:05:52;97024.68;;;19.05;37.30
47082;BME280;33066;49.296;14.470;2023-05-24T01:08:28;97025.91;;;18.94;37.52
47082;BME280;33066;49.296;14.470;2023-05-24T01:10:49;97023.20;;;19.00;37.63
47082;BME280;33066;49.296;14.470;2023-05-24T01:13:17;97024.60;;;19.39;37.60
47082;BME280;33066;49.296;14.470;2023-05-24T01:15:42;97024.75;;;19.32;37.57
47082;BME280;33066;49.296;14.470;2023-05-24T01:18:04;97030.18;;;19.07;37.15
47082;BME280;33066;49.296;14.470;2023-05-24T01:20:23;97031.43;;;19.72;37.29
47082;BME280;33066;49.296;14.470;2023-05-24T01:23:02;97028.76;;;19.50;36.59
47082;BME280;33066;49.296;14.470;2023-05-24T01:25:28;97032.72;;;19.15;36.56
47082;BME280;33066;49.296;14.470;2023-05-24T01:27:41;97030.74;;;19.62;36.54
47082;BME280;33066;49.296;14.470;2023-05-24T01:30:04;97030.51;;;19.47;36.56
47082;BME280;33066;49.296;14.470;2023-05-24T01:32:28;97034.00;;;19.15;36.29
47082;BME280;33066;49.296;14.470;2023-05-24T01:34:53;97036.84;;;19.40;36.32
47082;BME280;33066;49.296;14.470;2023-05-24T01:37:18;97037.76;;;19.35;36.22
47082;BME280;33066;49.296;14.470;2023-05-24T01:39:45;97034.96;;;19.05;36.23
47082;BME280;33066;49.296;14.470;2023-05-24T01:42:18;97034.41;;;19.20;36.02
47082;BME280;33066;49.296;14.470;2023-05-24T01:44:39;97033.89;;;18.90;36.17
47082;BME280;33066;49.296;14.470;2023-05-24T01:47:03;97035.71;;;18.84;36.34
47082;BME280;33066;49.296;14.470;2023-05-24T01:49:26;97035.82;;;19.07;36.18
47082;BME280;33066;49.296;14.470;2023-05-24T01:51:55;97040.53;;;19.11;36.53
47082;BME280;33066;49.296;14.470;2023-05-24T01:54:20;97040.38;;;19.12;36.06
47082;BME280;33066;49.296;14.470;2023-05-24T01:56:44;97047.75;;;18.93;36.35
47082;BME280;33066;49.296;14.470;2023-05-24T01:59:07;97049.48;;;19.15;36.39
47082;BME280;33066;49.296;14.470;2023-05-24T02:01:31;97052.15;;;18.86;36.24
47082;BME280;33066;49.296;14.470;2023-05-24T02:03:56;97054.76;;;18.98;36.56
47082;BME280;33066;49.296;14.470;2023-05-24T02:06:21;97055.89;;;18.76;36.64
47082;BME280;33066;49.296;14.470;2023-05-24T02:08:46;97058.12;;;19.00;36.30
47082;BME280;33066;49.296;14.470;2023-05-24T02:11:11;97058.61;;;18.71;36.57
47082;BME280;33066;49.296;14.470;2023-05-24T02:13:36;97059.33;;;18.87;36.55
47082;BME280;33066;49.296;14.470;2023-05-24T02:16:02;97060.93;;;18.83;36.55
47082;BME280;33066;49.296;14.470;2023-05-24T02:18:29;97061.51;;;18.79;36.52
47082;BME280;33066;49.296;14.470;2023-05-24T02:20:52;97061.33;;;18.91;36.55
47082;BME280;33066;49.296;14.470;2023-05-24T02:23:19;97061.74;;;18.65;36.89
47082;BME280;33066;49.296;14.470;2023-05-24T02:25:42;97058.43;;;18.60;36.79
47082;BME280;33066;49.296;14.470;2023-05-24T02:28:09;97060.20;;;18.94;36.79
47082;BME280;33066;49.296;14.470;2023-05-24T02:30:34;97060.13;;;18.74;36.60
47082;BME280;33066;49.296;14.470;2023-05-24T02:32:58;97056.52;;;18.92;36.63
47082;BME280;33066;49.296;14.470;2023-05-24T02:35:23;97052.90;;;19.10;36.20
47082;BME280;33066;49.296;14.470;2023-05-24T02:37:48;97057.58;;;18.90;36.47
47082;BME280;33066;49.296;14.470;2023-05-24T02:40:13;97061.88;;;18.76;36.55
47082;BME280;33066;49.296;14.470;2023-05-24T02:42:40;97061.65;;;18.50;36.55
47082;BME280;33066;49.296;14.470;2023-05-24T02:45:05;97060.71;;;18.65;36.66
47082;BME280;33066;49.296;14.470;2023-05-24T02:47:30;97061.04;;;18.99;36.65
47082;BME280;33066;49.296;14.470;2023-05-24T02:49:54;97058.23;;;18.58;36.55
47082;BME280;33066;49.296;14.470;2023-05-24T02:52:20;97057.33;;;18.83;36.47
47082;BME280;33066;49.296;14.470;2023-05-24T02:54:44;97059.18;;;18.70;36.48
47082;BME280;33066;49.296;14.470;2023-05-24T02:57:10;97055.47;;;18.75;36.65
47082;BME280;33066;49.296;14.470;2023-05-24T02:59:35;97055.07;;;18.73;36.42
47082;BME280;33066;49.296;14.470;2023-05-24T03:02:00;97056.13;;;18.78;36.53
47082;BME280;33066;49.296;14.470;2023-05-24T03:04:25;97059.72;;;18.54;36.60
47082;BME280;33066;49.296;14.470;2023-05-24T03:06:50;97066.31;;;18.64;36.38
47082;BME280;33066;49.296;14.470;2023-05-24T03:09:16;97067.88;;;18.79;36.58
47082;BME280;33066;49.296;14.470;2023-05-24T03:13:00;97070.68;;;18.77;36.04
47082;BME280;33066;49.296;14.470;2023-05-24T03:15:26;97073.76;;;18.64;35.99
47082;BME280;33066;49.296;14.470;2023-05-24T03:17:51;97078.27;;;18.70;36.44
47082;BME280;33066;49.296;14.470;2023-05-24T03:20:16;97080.25;;;18.61;36.44
47082;BME280;33066;49.296;14.470;2023-05-24T03:22:41;97083.37;;;18.56;36.62
47082;BME280;33066;49.296;14.470;2023-05-24T03:25:07;97084.88;;;18.59;36.68
47082;BME280;33066;49.296;14.470;2023-05-24T03:27:31;97086.49;;;18.57;36.66
47082;BME280;33066;49.296;14.470;2023-05-24T03:29:57;97089.42;;;18.46;36.63
47082;BME280;33066;49.296;14.470;2023-05-24T03:32:23;97089.33;;;18.37;36.85
47082;BME280;33066;49.296;14.470;2023-05-24T03:34:47;97084.39;;;18.43;36.75
47082;BME280;33066;49.296;14.470;2023-05-24T03:37:12;97083.77;;;18.44;36.80
47082;BME280;33066;49.296;14.470;2023-05-24T03:39:37;97086.91;;;18.52;36.87
47082;BME280;33066;49.296;14.470;2023-05-24T03:42:05;97085.79;;;18.54;36.74
47082;BME280;33066;49.296;14.470;2023-05-24T03:44:28;97088.77;;;18.62;36.66
47082;BME280;33066;49.296;14.470;2023-05-24T03:46:54;97088.89;;;18.70;36.74
47082;BME280;33066;49.296;14.470;2023-05-24T03:49:18;97092.85;;;18.56;36.76
47082;BME280;33066;49.296;14.470;2023-05-24T03:51:43;97093.87;;;18.88;36.65
47082;BME280;33066;49.296;14.470;2023-05-24T03:54:08;97096.19;;;18.68;36.49
47082;BME280;33066;49.296;14.470;2023-05-24T03:56:33;97099.82;;;18.65;36.41
47082;BME280;33066;49.296;14.470;2023-05-24T03:58:59;97104.70;;;18.90;36.45
47082;BME280;33066;49.296;14.470;2023-05-24T04:01:24;97102.02;;;18.71;36.80
47082;BME280;33066;49.296;14.470;2023-05-24T04:03:49;97102.78;;;18.68;37.28
47082;BME280;33066;49.296;14.470;2023-05-24T04:06:15;97100.63;;;18.93;37.54
47082;BME280;33066;49.296;14.470;2023-05-24T04:08:40;97103.00;;;18.94;37.75
47082;BME280;33066;49.296;14.470;2023-05-24T04:11:06;97100.14;;;18.97;37.55
47082;BME280;33066;49.296;14.470;2023-05-24T04:13:31;97101.89;;;19.16;37.39
47082;BME280;33066;49.296;14.470;2023-05-24T04:15:56;97102.98;;;18.69;37.12
47082;BME280;33066;49.296;14.470;2023-05-24T04:18:21;97100.70;;;18.99;36.67
47082;BME280;33066;49.296;14.470;2023-05-24T04:20:47;97102.75;;;18.75;36.81
47082;BME280;33066;49.296;14.470;2023-05-24T04:23:11;97103.87;;;18.77;37.04
47082;BME280;33066;49.296;14.470;2023-05-24T04:25:38;97104.04;;;18.78;36.55
47082;BME280;33066;49.296;14.470;2023-05-24T04:28:02;97104.40;;;19.01;36.40
47082;BME280;33066;49.296;14.470;2023-05-24T04:30:28;97105.52;;;19.05;36.22
47082;BME280;33066;49.296;14.470;2023-05-24T04:32:53;97108.25;;;18.83;36.33
47082;BME280;33066;49.296;14.470;2023-05-24T04:35:18;97102.86;;;18.85;36.48
47082;BME280;33066;49.296;14.470;2023-05-24T04:37:43;97101.85;;;19.09;36.99
47082;BME280;33066;49.296;14.470;2023-05-24T04:40:11;97102.06;;;18.76;37.25
47082;BME280;33066;49.296;14.470;2023-05-24T04:42:34;97102.71;;;19.11;36.68
47082;BME280;33066;49.296;14.470;2023-05-24T04:44:59;97102.22;;;19.07;36.15
47082;BME280;33066;49.296;14.470;2023-05-24T04:47:24;97105.24;;;18.80;35.81
47082;BME280;33066;49.296;14.470;2023-05-24T04:49:50;97107.01;;;18.38;35.71
47082;BME280;33066;49.296;14.470;2023-05-24T04:52:15;97108.44;;;18.55;36.22
47082;BME280;33066;49.296;14.470;2023-05-24T04:54:40;97112.69;;;18.58;36.71
47082;BME280;33066;49.296;14.470;2023-05-24T04:57:06;97112.95;;;18.72;36.07
47082;BME280;33066;49.296;14.470;2023-05-24T04:59:31;97116.75;;;18.55;36.40
47082;BME280;33066;49.296;14.470;2023-05-24T05:01:56;97121.34;;;18.66;36.14
47082;BME280;33066;49.296;14.470;2023-05-24T05:04:22;97120.80;;;18.67;35.79
47082;BME280;33066;49.296;14.470;2023-05-24T05:06:48;97119.58;;;18.50;35.77
47082;BME280;33066;49.296;14.470;2023-05-24T05:09:13;97116.82;;;18.73;35.59
47082;BME280;33066;49.296;14.470;2023-05-24T05:11:39;97120.52;;;18.74;35.89
47082;BME280;33066;49.296;14.470;2023-05-24T05:14:04;97115.10;;;18.69;35.43
47082;BME280;33066;49.296;14.470;2023-05-24T05:16:30;97116.31;;;19.03;35.51
47082;BME280;33066;49.296;14.470;2023-05-24T05:18:55;97116.53;;;18.60;35.32
47082;BME280;33066;49.296;14.470;2023-05-24T05:21:20;97116.72;;;18.74;35.25
47082;BME280;33066;49.296;14.470;2023-05-24T05:23:45;97119.07;;;18.78;35.28
47082;BME280;33066;49.296;14.470;2023-05-24T05:26:11;97117.52;;;19.15;35.16
47082;BME280;33066;49.296;14.470;2023-05-24T05:28:36;97117.69;;;19.07;35.31
47082;BME280;33066;49.296;14.470;2023-05-24T05:31:02;97112.52;;;18.99;34.79
47082;BME280;33066;49.296;14.470;2023-05-24T05:33:30;97111.90;;;18.98;35.06
47082;BME280;33066;49.296;14.470;2023-05-24T05:35:55;97113.21;;;19.27;34.86
47082;BME280;33066;49.296;14.470;2023-05-24T05:38:19;97112.54;;;19.17;34.85
47082;BME280;33066;49.296;14.470;2023-05-24T05:40:44;97113.63;;;19.15;34.69
47082;BME280;33066;49.296;14.470;2023-05-24T05:43:09;97120.35;;;18.92;34.89
47082;BME280;33066;49.296;14.470;2023-05-24T05:45:35;97120.07;;;18.90;34.98
47082;BME280;33066;49.296;14.470;2023-05-24T05:48:00;97123.42;;;18.68;34.85
47082;BME280;33066;49.296;14.470;2023-05-24T05:50:26;97122.32;;;18.93;34.83
47082;BME280;33066;49.296;14.470;2023-05-24T05:52:52;97122.52;;;18.85;34.83
47082;BME280;33066;49.296;14.470;2023-05-24T05:55:17;97123.83;;;18.46;34.71
47082;BME280;33066;49.296;14.470;2023-05-24T05:57:42;97126.82;;;19.46;34.14
47082;BME280;33066;49.296;14.470;2023-05-24T06:00:08;97130.77;;;19.40;34.14
47082;BME280;33066;49.296;14.470;2023-05-24T06:02:32;97129.11;;;19.28;33.96
47082;BME280;33066;49.296;14.470;2023-05-24T06:04:57;97130.20;;;19.22;34.06
47082;BME280;33066;49.296;14.470;2023-05-24T06:07:23;97128.39;;;19.04;34.28
47082;BME280;33066;49.296;14.470;2023-05-24T06:09:48;97132.75;;;19.48;33.85
47082;BME280;33066;49.296;14.470;2023-05-24T06:12:14;97130.78;;;19.36;33.99
47082;BME280;33066;49.296;14.470;2023-05-24T06:14:40;97129.93;;;19.63;33.66
47082;BME280;33066;49.296;14.470;2023-05-24T06:17:05;97131.53;;;19.54;33.82
47082;BME280;33066;49.296;14.470;2023-05-24T06:19:31;97135.09;;;19.60;33.85
47082;BME280;33066;49.296;14.470;2023-05-24T06:21:56;97138.54;;;19.49;33.49
47082;BME280;33066;49.296;14.470;2023-05-24T06:24:21;97139.67;;;19.57;33.59
47082;BME280;33066;49.296;14.470;2023-05-24T06:26:47;97143.11;;;19.71;33.58
47082;BME280;33066;49.296;14.470;2023-05-24T06:29:12;97146.07;;;19.45;33.79
47082;BME280;33066;49.296;14.470;2023-05-24T06:31:37;97147.96;;;19.77;33.69
47082;BME280;33066;49.296;14.470;2023-05-24T06:34:03;97147.19;;;19.71;33.44
47082;BME280;33066;49.296;14.470;2023-05-24T06:36:28;97145.83;;;19.32;33.51
47082;BME280;33066;49.296;14.470;2023-05-24T06:38:54;97141.69;;;19.47;33.70
47082;BME280;33066;49.296;14.470;2023-05-24T06:41:19;97143.25;;;19.48;33.73
47082;BME280;33066;49.296;14.470;2023-05-24T06:43:45;97142.01;;;19.38;33.62
47082;BME280;33066;49.296;14.470;2023-05-24T06:46:10;97141.86;;;19.33;33.67
47082;BME280;33066;49.296;14.470;2023-05-24T06:48:36;97140.70;;;19.36;33.62
47082;BME280;33066;49.296;14.470;2023-05-24T06:51:02;97144.94;;;19.23;33.47
47082;BME280;33066;49.296;14.470;2023-05-24T06:53:27;97147.77;;;19.50;33.50
47082;BME280;33066;49.296;14.470;2023-05-24T06:55:52;97154.82;;;19.36;33.77
47082;BME280;33066;49.296;14.470;2023-05-24T06:58:17;97153.46;;;19.53;33.32
47082;BME280;33066;49.296;14.470;2023-05-24T07:00:43;97155.69;;;19.25;33.18
47082;BME280;33066;49.296;14.470;2023-05-24T07:03:08;97156.88;;;19.27;33.02
47082;BME280;33066;49.296;14.470;2023-05-24T07:05:33;97158.73;;;19.70;33.02
47082;BME280;33066;49.296;14.470;2023-05-24T07:07:59;97161.34;;;19.73;33.27
47082;BME280;33066;49.296;14.470;2023-05-24T07:10:24;97160.21;;;19.79;33.83
47082;BME280;33066;49.296;14.470;2023-05-24T07:12:51;97160.25;;;19.89;33.73
47082;BME280;33066;49.296;14.470;2023-05-24T07:15:15;97160.45;;;19.86;33.33
47082;BME280;33066;49.296;14.470;2023-05-24T07:17:40;97159.13;;;19.86;33.54
47082;BME280;33066;49.296;14.470;2023-05-24T07:20:06;97160.79;;;20.04;33.26
47082;BME280;33066;49.296;14.470;2023-05-24T07:22:31;97161.92;;;20.20;32.98
47082;BME280;33066;49.296;14.470;2023-05-24T07:24:56;97167.59;;;20.09;32.66
47082;BME280;33066;49.296;14.470;2023-05-24T07:27:21;97168.00;;;20.15;32.73
47082;BME280;33066;49.296;14.470;2023-05-24T07:29:47;97169.04;;;20.36;32.61
47082;BME280;33066;49.296;14.470;2023-05-24T07:32:12;97172.45;;;20.30;32.46
47082;BME280;33066;49.296;14.470;2023-05-24T07:34:39;97171.22;;;20.23;32.57
47082;BME280;33066;49.296;14.470;2023-05-24T07:37:03;97170.02;;;19.91;32.30
47082;BME280;33066;49.296;14.470;2023-05-24T07:39:28;97173.40;;;19.98;32.37
47082;BME280;33066;49.296;14.470;2023-05-24T07:41:54;97175.74;;;20.16;32.17
47082;BME280;33066;49.296;14.470;2023-05-24T07:44:20;97171.54;;;20.32;32.26
47082;BME280;33066;49.296;14.470;2023-05-24T07:46:45;97170.09;;;20.34;32.40
47082;BME280;33066;49.296;14.470;2023-05-24T07:49:11;97171.33;;;20.50;32.62
47082;BME280;33066;49.296;14.470;2023-05-24T07:51:36;97172.42;;;20.66;32.35
47082;BME280;33066;49.296;14.470;2023-05-24T07:54:02;97173.88;;;20.73;32.20
47082;BME280;33066;49.296;14.470;2023-05-24T07:56:28;97172.24;;;20.63;31.91
47082;BME280;33066;49.296;14.470;2023-05-24T07:58:53;97174.08;;;20.73;32.60
47082;BME280;33066;49.296;14.470;2023-05-24T08:01:18;97173.55;;;20.71;32.00
47082;BME280;33066;49.296;14.470;2023-05-24T08:03:44;97173.90;;;20.69;32.01
47082;BME280;33066;49.296;14.470;2023-05-24T08:06:09;97173.48;;;20.86;32.23
47082;BME280;33066;49.296;14.470;2023-05-24T08:08:34;97173.66;;;20.61;32.10
47082;BME280;33066;49.296;14.470;2023-05-24T08:11:00;97175.77;;;20.68;32.24
47082;BME280;33066;49.296;14.470;2023-05-24T08:13:25;97179.11;;;20.64;32.20
47082;BME280;33066;49.296;14.470;2023-05-24T08:15:51;97178.73;;;20.57;32.23
47082;BME280;33066;49.296;14.470;2023-05-24T08:18:16;97178.18;;;20.65;32.32
47082;BME280;33066;49.296;14.470;2023-05-24T08:20:41;97173.55;;;20.44;32.06
47082;BME280;33066;49.296;14.470;2023-05-24T08:23:06;97174.87;;;20.39;32.42
47082;BME280;33066;49.296;14.470;2023-05-24T08:25:32;97180.44;;;20.38;32.46
47082;BME280;33066;49.296;14.470;2023-05-24T08:27:57;97178.81;;;20.43;32.31
47082;BME280;33066;49.296;14.470;2023-05-24T08:30:23;97179.03;;;20.40;32.30
47082;BME280;33066;49.296;14.470;2023-05-24T08:32:49;97180.21;;;20.51;32.30
47082;BME280;33066;49.296;14.470;2023-05-24T08:35:15;97183.77;;;20.29;32.13
47082;BME280;33066;49.296;14.470;2023-05-24T08:37:41;97183.80;;;20.64;32.13
47082;BME280;33066;49.296;14.470;2023-05-24T08:40:07;97186.02;;;20.84;32.25
47082;BME280;33066;49.296;14.470;2023-05-24T08:42:31;97183.77;;;20.74;32.63
47082;BME280;33066;49.296;14.470;2023-05-24T08:45:02;97183.85;;;20.83;32.46
47082;BME280;33066;49.296;14.470;2023-05-24T08:47:22;97181.91;;;20.69;32.17
47082;BME280;33066;49.296;14.470;2023-05-24T08:49:49;97187.52;;;20.69;32.41
47082;BME280;33066;49.296;14.470;2023-05-24T08:52:13;97184.25;;;20.33;32.58
47082;BME280;33066;49.296;14.470;2023-05-24T08:54:39;97184.07;;;20.54;32.72
47082;BME280;33066;49.296;14.470;2023-05-24T08:57:03;97187.20;;;20.25;32.79
47082;BME280;33066;49.296;14.470;2023-05-24T08:59:29;97190.82;;;19.93;33.22
47082;BME280;33066;49.296;14.470;2023-05-24T09:01:53;97195.48;;;19.81;33.53
47082;BME280;33066;49.296;14.470;2023-05-24T09:04:19;97201.30;;;20.07;33.21
47082;BME280;33066;49.296;14.470;2023-05-24T09:06:45;97202.27;;;20.07;33.50
47082;BME280;33066;49.296;14.470;2023-05-24T09:09:10;97210.56;;;20.07;33.32
47082;BME280;33066;49.296;14.470;2023-05-24T09:11:35;97214.18;;;19.98;33.08
47082;BME280;33066;49.296;14.470;2023-05-24T09:14:01;97208.23;;;20.15;32.97
47082;BME280;33066;49.296;14.470;2023-05-24T09:16:27;97206.84;;;20.25;33.01
47082;BME280;33066;49.296;14.470;2023-05-24T09:18:51;97207.15;;;20.43;32.94
47082;BME280;33066;49.296;14.470;2023-05-24T09:21:17;97208.30;;;20.50;33.21
47082;BME280;33066;49.296;14.470;2023-05-24T09:23:42;97212.13;;;20.49;32.70
47082;BME280;33066;49.296;14.470;2023-05-24T09:26:09;97212.30;;;20.58;33.00
47082;BME280;33066;49.296;14.470;2023-05-24T09:28:33;97213.49;;;20.54;32.53
47082;BME280;33066;49.296;14.470;2023-05-24T09:31:00;97213.69;;;20.40;32.44
47082;BME280;33066;49.296;14.470;2023-05-24T09:33:28;97214.67;;;20.41;33.10
47082;BME280;33066;49.296;14.470;2023-05-24T09:35:56;97216.52;;;20.62;33.36
47082;BME280;33066;49.296;14.470;2023-05-24T09:38:17;97215.33;;;20.61;33.35
47082;BME280;33066;49.296;14.470;2023-05-24T09:40:42;97213.11;;;20.71;33.53
47082;BME280;33066;49.296;14.470;2023-05-24T09:43:07;97214.28;;;20.78;33.05
47082;BME280;33066;49.296;14.470;2023-05-24T09:45:32;97215.53;;;20.93;33.19
47082;BME280;33066;49.296;14.470;2023-05-24T09:47:57;97215.26;;;20.80;32.81
47082;BME280;33066;49.296;14.470;2023-05-24T09:50:22;97216.25;;;21.09;32.96
47082;BME280;33066;49.296;14.470;2023-05-24T09:52:47;97213.07;;;20.93;33.02
47082;BME280;33066;49.296;14.470;2023-05-24T09:55:13;97210.23;;;21.36;32.86
47082;BME280;33066;49.296;14.470;2023-05-24T09:57:39;97213.76;;;21.02;32.52
47082;BME280;33066;49.296;14.470;2023-05-24T10:00:06;97213.91;;;21.22;32.42
47082;BME280;33066;49.296;14.470;2023-05-24T10:02:29;97215.81;;;21.21;32.20
47082;BME280;33066;49.296;14.470;2023-05-24T10:04:58;97215.01;;;21.39;31.89
47082;BME280;33066;49.296;14.470;2023-05-24T10:07:20;97224.88;;;21.33;32.16
47082;BME280;33066;49.296;14.470;2023-05-24T10:09:45;97224.55;;;21.15;32.20
47082;BME280;33066;49.296;14.470;2023-05-24T10:12:11;97226.40;;;21.16;31.86
47082;BME280;33066;49.296;14.470;2023-05-24T10:14:37;97227.55;;;21.07;31.86
47082;BME280;33066;49.296;14.470;2023-05-24T10:17:02;97230.01;;;21.06;31.64
47082;BME280;33066;49.296;14.470;2023-05-24T10:19:27;97231.03;;;21.08;31.44
47082;BME280;33066;49.296;14.470;2023-05-24T10:21:55;97234.43;;;21.27;31.91
47082;BME280;33066;49.296;14.470;2023-05-24T10:24:24;97235.67;;;21.23;31.75
47082;BME280;33066;49.296;14.470;2023-05-24T10:26:45;97232.36;;;21.32;31.57
47082;BME280;33066;49.296;14.470;2023-05-24T10:29:16;97230.91;;;21.82;31.41
47082;BME280;33066;49.296;14.470;2023-05-24T10:31:37;97231.51;;;21.89;31.56
47082;BME280;33066;49.296;14.470;2023-05-24T10:34:02;97230.12;;;21.26;31.02
47082;BME280;33066;49.296;14.470;2023-05-24T10:36:28;97233.01;;;21.53;31.24
47082;BME280;33066;49.296;14.470;2023-05-24T10:38:51;97231.88;;;21.85;30.90
47082;BME280;33066;49.296;14.470;2023-05-24T10:41:17;97230.11;;;21.57;31.41
47082;BME280;33066;49.296;14.470;2023-05-24T10:43:45;97225.11;;;21.55;30.84
47082;BME280;33066;49.296;14.470;2023-05-24T10:46:08;97222.88;;;21.77;31.11
47082;BME280;33066;49.296;14.470;2023-05-24T10:48:35;97224.55;;;22.08;31.12
47082;BME280;33066;49.296;14.470;2023-05-24T10:51:00;97223.36;;;22.26;30.24
47082;BME280;33066;49.296;14.470;2023-05-24T10:53:26;97223.88;;;22.09;30.26
47082;BME280;33066;49.296;14.470;2023-05-24T10:55:52;97224.91;;;22.06;30.76
47082;BME280;33066;49.296;14.470;2023-05-24T10:58:14;97225.78;;;22.15;30.75
47082;BME280;33066;49.296;14.470;2023-05-24T11:00:42;97227.94;;;22.13;30.79
47082;BME280;33066;49.296;14.470;2023-05-24T11:03:08;97228.68;;;21.74;30.58
47082;BME280;33066;49.296;14.470;2023-05-24T11:05:33;97228.03;;;22.50;30.64
47082;BME280;33066;49.296;14.470;2023-05-24T11:07:58;97227.49;;;22.49;29.84
47082;BME280;33066;49.296;14.470;2023-05-24T11:10:29;97225.75;;;22.53;30.41
47082;BME280;33066;49.296;14.470;2023-05-24T11:12:56;97224.86;;;22.76;30.16
47082;BME280;33066;49.296;14.470;2023-05-24T11:15:17;97225.55;;;22.80;29.89
47082;BME280;33066;49.296;14.470;2023-05-24T11:20:03;97224.25;;;22.42;29.36
47082;BME280;33066;49.296;14.470;2023-05-24T11:22:28;97228.35;;;22.54;30.35
47082;BME280;33066;49.296;14.470;2023-05-24T11:24:54;97228.19;;;22.68;29.31
47082;BME280;33066;49.296;14.470;2023-05-24T11:27:19;97229.33;;;22.97;29.62
47082;BME280;33066;49.296;14.470;2023-05-24T11:29:46;97227.96;;;23.09;29.53
47082;BME280;33066;49.296;14.470;2023-05-24T11:32:14;97222.80;;;23.63;29.62
47082;BME280;33066;49.296;14.470;2023-05-24T11:34:35;97228.82;;;23.14;28.23
47082;BME280;33066;49.296;14.470;2023-05-24T11:37:01;97231.27;;;23.27;28.72
47082;BME280;33066;49.296;14.470;2023-05-24T11:39:28;97231.18;;;23.08;28.87
47082;BME280;33066;49.296;14.470;2023-05-24T11:41:53;97231.49;;;23.06;29.33
47082;BME280;33066;49.296;14.470;2023-05-24T11:44:17;97231.98;;;22.91;28.57
47082;BME280;33066;49.296;14.470;2023-05-24T11:46:42;97234.18;;;23.29;29.07
47082;BME280;33066;49.296;14.470;2023-05-24T11:49:11;97233.89;;;23.01;28.56
47082;BME280;33066;49.296;14.470;2023-05-24T11:51:33;97232.31;;;23.04;29.04
47082;BME280;33066;49.296;14.470;2023-05-24T11:53:59;97230.88;;;23.40;29.23
47082;BME280;33066;49.296;14.470;2023-05-24T11:56:24;97228.22;;;22.86;28.84
47082;BME280;33066;49.296;14.470;2023-05-24T11:58:49;97228.86;;;22.61;29.16
47082;BME280;33066;49.296;14.470;2023-05-24T12:01:24;97233.22;;;21.95;29.17
47082;BME280;33066;49.296;14.470;2023-05-24T12:03:39;97231.97;;;23.13;29.10
47082;BME280;33066;49.296;14.470;2023-05-24T12:06:06;97232.72;;;22.77;28.77
47082;BME280;33066;49.296;14.470;2023-05-24T12:08:29;97235.85;;;22.63;29.24
47082;BME280;33066;49.296;14.470;2023-05-24T12:10:55;97237.34;;;22.77;29.14
47082;BME280;33066;49.296;14.470;2023-05-24T12:13:21;97238.86;;;23.45;28.11
47082;BME280;33066;49.296;14.470;2023-05-24T12:15:50;97233.19;;;24.23;28.36
47082;BME280;33066;49.296;14.470;2023-05-24T12:18:17;97233.66;;;24.93;26.56
47082;BME280;33066;49.296;14.470;2023-05-24T12:20:37;97229.11;;;24.63;26.25
47082;BME280;33066;49.296;14.470;2023-05-24T12:23:02;97225.70;;;25.08;26.71
47082;BME280;33066;49.296;14.470;2023-05-24T12:25:27;97225.85;;;24.52;26.67
47082;BME280;33066;49.296;14.470;2023-05-24T12:27:53;97226.47;;;24.73;26.55
47082;BME280;33066;49.296;14.470;2023-05-24T12:30:22;97219.78;;;24.65;26.07
47082;BME280;33066;49.296;14.470;2023-05-24T12:32:44;97215.48;;;25.04;26.32
47082;BME280;33066;49.296;14.470;2023-05-24T12:35:10;97219.01;;;24.52;26.05
47082;BME280;33066;49.296;14.470;2023-05-24T12:37:35;97220.43;;;24.40;26.64
47082;BME280;33066;49.296;14.470;2023-05-24T12:40:01;97218.90;;;23.94;26.72
47082;BME280;33066;49.296;14.470;2023-05-24T12:42:28;97215.50;;;23.73;26.95